Time;durP1;ratioP1;P1;durP2;ratioP2;P2;SDS_P1;SDS_P2;PMS_P1;PMS_P2;Temp;Humidity;BMP_temperature;BMP_pressure;BME280_temperature;BME280_humidity;BME280_pressure;Samples;Min_cycle;Max_cycle;Signal;HPM_P1;HPM_P2
2022/07/02 00:01:51;;;;;;;7.18;5.25;;;;;;;14.43;81.52;102079.97;5070795;28;20191;-68
2022/07/02 00:04:19;;;;;;;9.13;4.43;;;;;;;14.42;81.51;102075.66;5070568;28;20047;-68
2022/07/02 00:06:46;;;;;;;8.07;4.15;;;;;;;14.44;81.22;102068.25;5070395;28;20048;-68
2022/07/02 00:09:13;;;;;;;6.18;4.60;;;;;;;14.43;81.05;102065.72;5070451;28;20024;-68
2022/07/02 00:11:41;;;;;;;7.15;3.85;;;;;;;14.45;80.97;102071.75;5070968;28;20540;-68
2022/07/02 00:14:08;;;;;;;8.00;4.18;;;;;;;14.42;81.09;102083.69;5070519;28;20029;-68
2022/07/02 00:16:34;;;;;;;4.68;4.13;;;;;;;14.40;80.82;102076.84;5070464;28;20055;-68
2022/07/02 00:19:00;;;;;;;7.47;4.55;;;;;;;14.39;80.81;102080.56;5070385;28;20108;-68
2022/07/02 00:21:26;;;;;;;8.35;4.30;;;;;;;14.38;80.99;102084.25;5070382;28;20078;-68
2022/07/02 00:23:51;;;;;;;6.13;3.80;;;;;;;14.37;80.86;102078.06;5068962;28;20091;-68
2022/07/02 00:26:21;;;;;;;6.68;4.20;;;;;;;14.36;80.73;102078.28;5068834;28;20036;-68
2022/07/02 00:28:56;;;;;;;6.32;3.85;;;;;;;14.31;81.27;102080.72;5069999;28;20032;-68
2022/07/02 00:31:21;;;;;;;7.68;4.18;;;;;;;14.27;82.64;102074.88;5070000;28;20082;-68
2022/07/02 00:33:49;;;;;;;7.22;4.18;;;;;;;14.20;82.75;102074.81;5070154;28;20040;-68
2022/07/02 00:36:21;;;;;;;5.25;3.88;;;;;;;14.15;82.51;102077.25;5070405;28;20459;-68
2022/07/02 00:38:48;;;;;;;7.80;4.50;;;;;;;14.11;82.93;102075.94;5069949;28;20025;-68
2022/07/02 00:41:13;;;;;;;7.47;4.00;;;;;;;14.08;83.14;102079.00;5069771;28;20032;-68
2022/07/02 00:43:39;;;;;;;10.23;5.75;;;;;;;14.07;82.77;102081.88;5069844;28;20028;-68
2022/07/02 00:46:05;;;;;;;6.78;4.85;;;;;;;14.03;82.40;102076.88;5069796;28;20039;-68
2022/07/02 00:48:30;;;;;;;7.68;4.65;;;;;;;14.06;82.29;102077.53;5068343;28;20135;-68
2022/07/02 00:50:56;;;;;;;5.68;4.35;;;;;;;14.05;82.08;102071.34;5069736;28;20116;-68
2022/07/02 00:53:21;;;;;;;4.97;4.40;;;;;;;14.03;81.89;102084.13;5069518;28;20119;-68
2022/07/02 00:55:55;;;;;;;6.05;4.30;;;;;;;14.00;82.22;102069.22;5069515;28;20503;-68
2022/07/02 00:58:20;;;;;;;5.90;4.05;;;;;;;13.96;82.99;102070.66;5069611;28;20039;-68
2022/07/02 01:00:46;;;;;;;5.13;4.63;;;;;;;13.90;83.33;102071.38;5069643;28;20424;-68
2022/07/02 01:03:12;;;;;;;10.65;5.53;;;;;;;13.81;83.54;102069.84;5069524;28;20032;-68
2022/07/02 01:05:37;;;;;;;7.32;4.32;;;;;;;13.69;84.75;102066.78;5052122;28;20032;-68
2022/07/02 01:10:52;;;;;;;9.38;5.03;;;;;;;13.51;85.01;102061.81;5069256;28;20128;-65
2022/07/02 01:13:18;;;;;;;10.75;5.68;;;;;;;13.46;85.37;102058.88;5069346;28;20039;-65
2022/07/02 01:15:43;;;;;;;6.50;4.88;;;;;;;13.45;86.37;102059.91;5069294;28;20036;-65
2022/07/02 01:18:10;;;;;;;8.13;4.60;;;;;;;13.39;86.10;102049.94;5069294;28;20471;-66
2022/07/02 01:20:36;;;;;;;15.95;5.75;;;;;;;13.37;86.05;102052.78;5067933;28;20021;-65
2022/07/02 01:23:02;;;;;;;6.35;4.35;;;;;;;13.36;85.65;102063.66;5069144;28;20117;-65
2022/07/02 01:25:27;;;;;;;7.70;4.57;;;;;;;13.35;86.20;102059.34;5069158;28;20028;-65
2022/07/02 01:27:53;;;;;;;6.53;4.57;;;;;;;13.33;85.80;102062.19;5069130;28;20056;-65
2022/07/02 01:30:19;;;;;;;8.48;4.72;;;;;;;13.31;86.23;102055.38;5068988;28;20033;-65
2022/07/02 01:32:44;;;;;;;8.55;5.05;;;;;;;13.26;86.71;102049.72;5069649;28;20037;-65
2022/07/02 01:35:10;;;;;;;7.63;5.13;;;;;;;13.21;86.94;102055.63;5069629;28;20042;-65
2022/07/02 01:37:39;;;;;;;8.25;5.07;;;;;;;13.24;87.08;102062.47;5068944;28;20467;-65
2022/07/02 01:40:05;;;;;;;7.80;4.57;;;;;;;13.18;87.40;102071.22;5068912;28;20506;-65
2022/07/02 01:42:31;;;;;;;8.45;5.00;;;;;;;13.08;88.25;102061.63;5068561;28;20449;-65
2022/07/02 01:44:56;;;;;;;8.68;5.32;;;;;;;13.03;88.59;102065.88;5069034;28;20028;-65
2022/07/02 01:47:22;;;;;;;8.65;4.80;;;;;;;13.00;88.67;102063.56;5068931;28;20035;-65
2022/07/02 01:49:47;;;;;;;11.02;5.63;;;;;;;12.99;88.52;102059.19;5068726;28;20036;-65
2022/07/02 01:52:15;;;;;;;8.80;5.03;;;;;;;13.03;87.89;102061.34;5068261;28;20472;-65
2022/07/02 01:54:40;;;;;;;9.90;5.22;;;;;;;12.98;88.70;102058.38;5068690;28;20454;-66
2022/07/02 01:57:06;;;;;;;7.43;4.65;;;;;;;12.96;89.03;102056.88;5068778;28;20036;-66
2022/07/02 01:59:32;;;;;;;9.45;4.95;;;;;;;12.93;89.11;102063.44;5069010;28;20020;-65
2022/07/02 02:01:57;;;;;;;12.60;6.07;;;;;;;12.91;88.95;102058.25;5068868;28;20024;-65
2022/07/02 02:04:23;;;;;;;7.78;4.75;;;;;;;12.92;89.07;102054.56;5068730;28;20048;-65
2022/07/02 02:06:48;;;;;;;10.40;4.93;;;;;;;12.92;88.32;102053.75;5068924;28;20032;-65
2022/07/02 02:09:14;;;;;;;10.88;5.15;;;;;;;12.97;88.27;102053.19;5068667;28;20036;-65
2022/07/02 02:11:39;;;;;;;11.73;5.03;;;;;;;12.90;88.32;102045.88;5068825;28;20546;-65
2022/07/02 02:14:05;;;;;;;9.98;5.20;;;;;;;12.99;88.21;102057.34;5068715;28;20123;-65
2022/07/02 02:16:31;;;;;;;11.32;5.85;;;;;;;13.02;88.01;102061.50;5067350;28;20032;-65
2022/07/02 02:18:58;;;;;;;13.23;5.60;;;;;;;12.94;87.79;102055.22;5068779;28;20056;-65
2022/07/02 02:21:25;;;;;;;8.15;5.07;;;;;;;13.00;87.57;102058.19;5068616;28;20024;-65
2022/07/02 02:23:56;;;;;;;7.68;5.40;;;;;;;12.98;88.71;102062.91;5068673;28;20024;-65
2022/07/02 02:26:22;;;;;;;9.40;5.37;;;;;;;12.92;88.50;102057.25;5068586;28;20041;-65
2022/07/02 02:28:47;;;;;;;10.93;6.72;;;;;;;12.87;88.70;102064.19;5068324;28;20492;-65
2022/07/02 02:31:12;;;;;;;8.48;5.07;;;;;;;12.82;88.42;102067.38;5068581;28;20082;-65
2022/07/02 02:33:38;;;;;;;13.95;5.18;;;;;;;12.82;88.49;102072.75;5068353;28;20044;-65
2022/07/02 02:36:04;;;;;;;10.63;5.30;;;;;;;12.83;88.13;102068.22;5068497;28;20079;-65
2022/07/02 02:38:30;;;;;;;9.57;5.38;;;;;;;12.82;87.95;102066.56;5068467;28;20120;-65
2022/07/02 02:40:55;;;;;;;12.98;6.25;;;;;;;12.85;87.52;102059.00;5068528;28;20028;-65
2022/07/02 02:43:21;;;;;;;11.00;5.20;;;;;;;12.88;87.23;102065.81;5068502;28;20090;-66
2022/07/02 02:45:47;;;;;;;16.67;5.70;;;;;;;12.86;86.84;102057.13;5068358;28;20146;-65
2022/07/02 02:48:13;;;;;;;8.95;4.57;;;;;;;12.94;86.85;102067.75;5068239;28;20029;-65
2022/07/02 02:50:38;;;;;;;6.20;4.60;;;;;;;12.89;86.87;102049.59;5068245;28;20102;-65
2022/07/02 02:53:03;;;;;;;10.15;4.32;;;;;;;12.96;86.67;102055.03;5066979;28;20112;-65
2022/07/02 02:55:29;;;;;;;8.20;5.65;;;;;;;12.96;86.73;102057.72;5068364;28;20056;-65
2022/07/02 02:57:55;;;;;;;10.27;5.10;;;;;;;12.95;86.58;102058.75;5068030;28;20458;-65
2022/07/02 03:00:20;;;;;;;18.13;4.72;;;;;;;12.94;86.75;102062.41;5068281;28;20033;-65
2022/07/02 03:02:46;;;;;;;10.80;4.57;;;;;;;12.93;87.03;102074.97;5068233;28;20036;-65
2022/07/02 03:05:11;;;;;;;9.50;5.75;;;;;;;12.95;87.16;102072.13;5070627;28;20466;-65
2022/07/02 03:07:37;;;;;;;9.10;4.85;;;;;;;12.96;86.95;102079.13;5071854;28;20056;-65
2022/07/02 03:10:02;;;;;;;8.60;4.55;;;;;;;12.98;87.20;102074.44;5071657;28;20468;-65
2022/07/02 03:12:28;;;;;;;7.90;4.45;;;;;;;12.99;86.93;102070.72;5071764;28;20107;-65
2022/07/02 03:14:53;;;;;;;10.38;4.65;;;;;;;13.06;86.84;102078.88;5071674;28;20529;-65
2022/07/02 03:17:19;;;;;;;7.57;4.72;;;;;;;13.08;87.01;102074.19;5071550;28;20450;-65
2022/07/02 03:19:45;;;;;;;11.20;4.93;;;;;;;13.08;87.07;102072.31;5071587;28;20032;-65
2022/07/02 03:22:11;;;;;;;8.00;4.40;;;;;;;13.06;86.33;102082.38;5071548;28;20037;-65
2022/07/02 03:24:36;;;;;;;10.43;4.78;;;;;;;13.05;86.26;102077.22;5071457;28;20028;-66
2022/07/02 03:27:02;;;;;;;23.50;5.90;;;;;;;13.02;86.57;102086.47;5071098;28;20038;-65
2022/07/02 03:29:27;;;;;;;6.07;4.30;;;;;;;13.00;86.57;102090.34;5070971;28;20044;-66
2022/07/02 03:31:52;;;;;;;11.27;4.30;;;;;;;12.97;86.50;102096.88;5071160;28;20036;-65
2022/07/02 03:34:18;;;;;;;7.53;4.60;;;;;;;12.93;86.48;102098.25;5071246;28;20028;-65
2022/07/02 03:36:43;;;;;;;10.75;5.05;;;;;;;12.92;86.55;102094.75;5053149;28;20074;-65
2022/07/02 03:39:08;;;;;;;7.40;4.43;;;;;;;12.90;86.48;102093.25;5071068;28;20025;-65
2022/07/02 03:41:34;;;;;;;8.55;4.07;;;;;;;12.91;86.25;102092.25;5071043;28;20070;-65
2022/07/02 03:43:59;;;;;;;10.65;4.18;;;;;;;12.88;86.58;102087.25;5070967;28;20032;-65
2022/07/02 03:46:24;;;;;;;7.55;4.72;;;;;;;12.98;86.72;102095.88;5070784;28;20472;-65
2022/07/02 03:48:50;;;;;;;7.53;4.68;;;;;;;12.98;86.54;102093.19;5070881;28;20511;-65
2022/07/02 03:51:15;;;;;;;5.60;3.85;;;;;;;12.94;86.33;102092.72;5070887;28;20033;-65
2022/07/02 03:53:41;;;;;;;5.68;3.92;;;;;;;12.99;86.90;102102.88;5069491;28;20483;-65
2022/07/02 03:56:06;;;;;;;8.93;3.88;;;;;;;13.00;86.78;102096.53;5070728;28;20119;-65
2022/07/02 03:58:31;;;;;;;7.45;4.35;;;;;;;13.03;87.55;102098.00;5070861;28;20046;-65
2022/07/02 04:00:57;;;;;;;11.73;4.40;;;;;;;12.98;87.05;102092.34;5070743;28;20507;-65
2022/07/02 04:03:23;;;;;;;7.22;4.85;;;;;;;12.91;86.74;102090.38;5070717;28;20028;-65
2022/07/02 04:05:48;;;;;;;6.18;4.38;;;;;;;12.97;86.97;102107.59;5070731;28;20388;-65
2022/07/02 04:08:13;;;;;;;8.95;4.75;;;;;;;12.97;87.14;102104.06;5070662;28;20032;-65
2022/07/02 04:10:39;;;;;;;9.93;4.65;;;;;;;12.99;86.95;102110.06;5070411;28;20079;-65
2022/07/02 04:13:04;;;;;;;8.35;4.20;;;;;;;13.03;87.45;102101.50;5069073;28;20028;-66
2022/07/02 04:15:30;;;;;;;8.20;4.90;;;;;;;13.07;88.06;102108.16;5069927;28;20107;-66
2022/07/02 04:17:55;;;;;;;6.65;5.65;;;;;;;13.07;87.90;102112.66;5070390;28;20425;-65
2022/07/02 04:20:20;;;;;;;11.52;4.63;;;;;;;13.02;87.09;102101.69;5070300;28;20025;-65
2022/07/02 04:22:46;;;;;;;5.88;4.30;;;;;;;13.05;86.64;102104.84;5070292;28;20036;-65
2022/07/02 04:25:11;;;;;;;7.03;4.65;;;;;;;13.06;86.68;102103.00;5070219;28;20565;-65
2022/07/02 04:27:36;;;;;;;7.10;5.05;;;;;;;13.12;86.53;102112.97;5070004;28;20040;-65
2022/07/02 04:30:02;;;;;;;7.95;5.32;;;;;;;13.11;86.70;102114.81;5070001;28;20040;-65
2022/07/02 04:32:27;;;;;;;8.07;4.40;;;;;;;13.10;87.86;102109.66;5070005;28;20028;-65
2022/07/02 04:34:53;;;;;;;11.20;5.10;;;;;;;12.99;87.50;102097.50;5070329;28;20020;-65
2022/07/02 04:37:18;;;;;;;9.05;4.75;;;;;;;13.08;87.63;102107.16;5069843;28;20028;-65
2022/07/02 04:39:43;;;;;;;7.68;4.45;;;;;;;13.13;86.92;102098.56;5069846;28;20028;-65
2022/07/02 04:42:09;;;;;;;11.63;5.00;;;;;;;13.22;87.09;102118.06;5069926;28;20032;-65
2022/07/02 04:44:34;;;;;;;13.35;4.30;;;;;;;13.31;87.35;102117.00;5069846;28;20077;-65
2022/07/02 04:46:59;;;;;;;9.73;5.82;;;;;;;13.50;86.68;102111.09;5069820;28;20025;-65
2022/07/02 04:49:25;;;;;;;9.80;5.60;;;;;;;13.59;86.36;102109.13;5069788;28;20119;-65
2022/07/02 04:51:51;;;;;;;9.75;6.38;;;;;;;13.58;85.81;102113.69;5069655;28;20127;-65
2022/07/02 04:54:16;;;;;;;7.53;5.00;;;;;;;13.57;85.81;102105.81;5068318;28;20025;-65
2022/07/02 04:56:42;;;;;;;9.73;4.68;;;;;;;13.66;85.59;102102.03;5069725;28;20128;-68
2022/07/02 04:59:07;;;;;;;10.02;5.82;;;;;;;13.73;85.10;102100.28;5069553;28;20028;-68
2022/07/02 05:01:32;;;;;;;7.47;4.63;;;;;;;13.82;84.57;102098.31;5069799;28;20441;-68
2022/07/02 05:03:58;;;;;;;5.97;4.40;;;;;;;13.91;84.52;102099.88;5069507;28;20071;-68
2022/07/02 05:06:23;;;;;;;7.82;5.63;;;;;;;14.02;84.68;102102.06;5069492;28;20024;-69
2022/07/02 05:08:50;;;;;;;7.00;4.88;;;;;;;14.16;84.30;102112.94;5069445;28;20029;-69
2022/07/02 05:11:16;;;;;;;7.57;5.07;;;;;;;14.43;83.14;102114.88;5069085;28;20025;-69
2022/07/02 05:13:44;;;;;;;8.70;4.72;;;;;;;14.51;83.63;102116.59;5069337;28;20042;-68
2022/07/02 05:16:10;;;;;;;8.25;4.72;;;;;;;14.56;83.79;102110.69;5069620;28;20017;-68
2022/07/02 05:18:35;;;;;;;8.52;4.40;;;;;;;14.52;83.62;102102.19;5069259;28;20101;-68
2022/07/02 05:21:01;;;;;;;12.68;6.55;;;;;;;14.63;83.07;102108.91;5069366;28;20040;-68
2022/07/02 05:23:26;;;;;;;10.15;5.03;;;;;;;14.69;82.64;102103.59;5069268;28;20025;-68
2022/07/02 05:25:52;;;;;;;6.68;4.20;;;;;;;14.79;80.96;102108.63;5069187;28;20454;-68
2022/07/02 05:28:17;;;;;;;4.85;3.78;;;;;;;14.89;81.23;102103.75;5068318;28;20106;-68
2022/07/02 05:30:42;;;;;;;9.95;4.65;;;;;;;14.92;81.06;102101.72;5069129;28;20086;-68
2022/07/02 05:33:08;;;;;;;5.90;4.13;;;;;;;14.95;80.61;102104.84;5069033;28;20036;-68
2022/07/02 05:35:33;;;;;;;11.68;5.18;;;;;;;14.96;79.65;102103.84;5067820;28;20634;-68
2022/07/02 05:37:58;;;;;;;7.70;3.88;;;;;;;15.06;80.34;102108.84;5069082;28;20064;-68
2022/07/02 05:40:24;;;;;;;8.38;4.13;;;;;;;15.12;79.73;102113.47;5068968;28;20468;-68
2022/07/02 05:42:50;;;;;;;7.60;3.45;;;;;;;15.38;79.64;102120.88;5069080;28;20036;-68
2022/07/02 05:45:15;;;;;;;8.95;4.70;;;;;;;15.61;79.96;102117.88;5068937;28;20029;-68
2022/07/02 05:47:40;;;;;;;5.50;3.67;;;;;;;15.68;78.87;102121.44;5068953;28;20097;-68
2022/07/02 05:50:06;;;;;;;6.32;3.55;;;;;;;15.65;78.06;102121.00;5068914;28;20029;-69
2022/07/02 05:52:32;;;;;;;6.43;3.38;;;;;;;15.64;77.39;102122.88;5068846;28;20107;-69
2022/07/02 05:54:57;;;;;;;6.20;3.38;;;;;;;15.56;77.48;102125.72;5068873;28;20059;-69
2022/07/02 05:57:22;;;;;;;6.32;3.40;;;;;;;15.49;78.09;102120.31;5068710;28;20032;-69
2022/07/02 05:59:48;;;;;;;5.35;3.45;;;;;;;15.60;77.86;102137.75;5068981;28;20064;-69
2022/07/02 06:02:13;;;;;;;5.55;3.05;;;;;;;15.68;77.87;102136.75;5068824;28;20036;-68
2022/07/02 06:04:38;;;;;;;5.53;3.17;;;;;;;16.10;76.82;102129.50;5068839;28;20060;-65
2022/07/02 06:07:49;;;;;;;7.78;3.20;;;;;;;16.84;73.90;102125.94;5068916;28;20025;-65
2022/07/02 06:09:50;;;;;;;3.28;2.85;;;;;;;17.07;73.66;102123.66;5067939;28;20046;-65
2022/07/02 06:12:15;;;;;;;5.13;3.38;;;;;;;16.92;72.47;102114.94;5068912;28;20028;-65
2022/07/02 06:14:41;;;;;;;6.78;2.88;;;;;;;16.73;72.96;102129.22;5068731;28;20430;-65
2022/07/02 06:17:06;;;;;;;6.68;3.20;;;;;;;16.58;72.22;102124.88;5068702;28;20987;-65
2022/07/02 06:19:31;;;;;;;9.30;3.10;;;;;;;16.48;74.34;102124.44;5068547;28;20036;-66
2022/07/02 06:21:57;;;;;;;4.88;2.75;;;;;;;16.34;71.58;102118.19;5068709;28;20024;-66
2022/07/02 06:24:22;;;;;;;4.28;2.47;;;;;;;16.26;72.80;102117.53;5068616;28;20028;-65
2022/07/02 06:26:47;;;;;;;4.15;2.78;;;;;;;16.26;74.08;102121.06;5068933;28;20103;-65
2022/07/02 06:29:13;;;;;;;4.90;2.70;;;;;;;16.23;70.94;102128.72;5068319;28;20044;-66
2022/07/02 06:31:38;;;;;;;7.68;3.22;;;;;;;16.25;75.18;102137.44;5068484;28;20067;-66
2022/07/02 06:34:04;;;;;;;4.55;2.45;;;;;;;16.24;72.25;102133.06;5068496;28;20039;-67
2022/07/02 06:36:30;;;;;;;2.80;2.40;;;;;;;16.28;72.08;102137.03;5068562;28;20033;-67
2022/07/02 06:38:55;;;;;;;7.13;2.60;;;;;;;16.33;72.79;102137.25;5070653;28;20466;-65
2022/07/02 06:44:06;;;;;;;4.28;2.88;;;;;;;16.32;70.75;102135.56;5072530;28;20047;-66
2022/07/02 06:46:33;;;;;;;6.00;3.22;;;;;;;16.38;71.34;102145.53;5072417;28;20380;-66
2022/07/02 06:48:58;;;;;;;6.00;3.20;;;;;;;16.41;71.38;102142.44;5070610;28;20028;-66
2022/07/02 06:51:24;;;;;;;8.60;3.53;;;;;;;16.52;71.16;102143.69;5071996;28;20036;-66
2022/07/02 06:53:49;;;;;;;6.43;3.35;;;;;;;16.59;70.83;102140.00;5071881;28;20032;-66
2022/07/02 06:56:15;;;;;;;4.72;2.83;;;;;;;16.63;69.93;102127.75;5071803;28;20045;-67
2022/07/02 06:58:40;;;;;;;4.15;2.17;;;;;;;16.76;68.07;102143.09;5071890;28;20082;-67
2022/07/02 07:01:05;;;;;;;3.47;3.08;;;;;;;16.80;67.76;102136.31;5072180;28;20036;-66
2022/07/02 07:03:31;;;;;;;8.15;3.20;;;;;;;16.85;67.06;102141.91;5072164;28;20062;-66
2022/07/02 07:05:56;;;;;;;4.63;2.50;;;;;;;16.90;67.27;102140.44;5071967;28;20032;-66
2022/07/02 07:08:21;;;;;;;4.97;2.28;;;;;;;16.94;65.98;102141.69;5071996;28;20111;-66
2022/07/02 07:10:47;;;;;;;6.00;2.53;;;;;;;16.99;64.95;102131.13;5072058;28;20597;-65
2022/07/02 07:13:12;;;;;;;7.03;2.63;;;;;;;17.04;63.27;102137.56;5071988;28;20991;-66
2022/07/02 07:15:37;;;;;;;3.60;1.80;;;;;;;17.13;63.71;102135.47;5071944;28;20043;-65
2022/07/02 07:18:03;;;;;;;4.18;1.98;;;;;;;17.15;65.90;102136.09;5070627;28;20096;-66
2022/07/02 07:20:29;;;;;;;3.35;1.20;;;;;;;17.19;63.32;102141.91;5072197;28;20035;-67
2022/07/02 07:22:59;;;;;;;3.58;1.73;;;;;;;17.24;65.49;102140.25;5071758;28;20028;-66
2022/07/02 07:25:25;;;;;;;5.88;1.73;;;;;;;17.33;65.29;102140.84;5071695;28;20040;-66
2022/07/02 07:27:51;;;;;;;5.60;2.47;;;;;;;17.37;64.58;102139.41;5071637;28;20060;-66
2022/07/02 07:30:16;;;;;;;9.25;2.47;;;;;;;17.40;63.07;102146.25;5071693;28;20115;-66
2022/07/02 07:32:42;;;;;;;2.28;1.15;;;;;;;17.46;61.52;102142.69;5071678;28;20557;-66
2022/07/02 07:35:08;;;;;;;4.15;1.10;;;;;;;17.52;62.14;102147.22;5071695;28;20032;-66
2022/07/02 07:37:36;;;;;;;3.63;0.93;;;;;;;17.52;57.17;102134.56;5071495;28;20028;-66
2022/07/02 07:40:03;;;;;;;2.78;1.20;;;;;;;17.56;56.51;102143.09;5071631;28;20035;-66
2022/07/02 07:42:29;;;;;;;2.35;1.15;;;;;;;17.61;59.67;102151.38;5071412;28;20024;-66
2022/07/02 07:44:54;;;;;;;1.55;1.23;;;;;;;17.68;59.31;102140.53;5071397;28;20059;-66
2022/07/02 07:47:20;;;;;;;2.65;1.00;;;;;;;17.75;59.76;102134.09;5070984;28;20036;-66
2022/07/02 07:49:45;;;;;;;2.58;1.95;;;;;;;17.85;61.45;102143.66;5070463;28;20986;-67
2022/07/02 07:52:11;;;;;;;2.25;1.35;;;;;;;17.91;61.11;102149.00;5071256;28;20032;-66
2022/07/02 07:54:37;;;;;;;1.88;1.40;;;;;;;17.97;59.74;102152.72;5071163;28;20393;-66
2022/07/02 07:57:03;;;;;;;1.35;1.25;;;;;;;18.04;61.27;102134.63;5071141;28;20033;-66
2022/07/02 07:59:28;;;;;;;2.67;1.58;;;;;;;18.13;61.46;102143.31;5070733;28;20032;-65
2022/07/02 08:01:54;;;;;;;1.20;1.10;;;;;;;18.12;61.75;102128.97;5070936;28;20035;-66
2022/07/02 08:04:19;;;;;;;4.13;1.30;;;;;;;18.23;59.47;102132.88;5071009;28;20038;-66
2022/07/02 08:06:45;;;;;;;2.03;1.20;;;;;;;18.32;60.42;102134.28;5071020;28;20032;-66
2022/07/02 08:09:10;;;;;;;1.52;1.42;;;;;;;18.45;59.16;102127.16;5070964;28;20029;-66
2022/07/02 08:11:36;;;;;;;3.58;1.88;;;;;;;18.73;60.49;102132.97;5070875;28;20036;-66
2022/07/02 08:14:01;;;;;;;3.25;1.15;;;;;;;20.50;57.24;102124.13;5070826;28;20360;-66
2022/07/02 08:16:26;;;;;;;2.88;1.42;;;;;;;23.27;48.80;102125.13;5070779;28;20054;-66
2022/07/02 08:18:52;;;;;;;3.55;1.67;;;;;;;25.46;44.92;102130.28;5070707;28;20029;-66
2022/07/02 08:21:18;;;;;;;5.57;1.45;;;;;;;27.04;41.74;102114.16;5070741;28;20025;-66
2022/07/02 08:23:43;;;;;;;2.85;1.52;;;;;;;28.34;36.49;102121.53;5069413;28;20526;-66
2022/07/02 08:26:08;;;;;;;1.73;1.27;;;;;;;29.57;34.20;102118.44;5069329;28;20396;-66
2022/07/02 08:28:34;;;;;;;2.72;1.55;;;;;;;30.35;32.95;102119.84;5070393;28;20508;-66
2022/07/02 08:31:00;;;;;;;2.88;1.10;;;;;;;30.65;31.24;102119.63;5070479;28;20078;-67
2022/07/02 08:33:26;;;;;;;1.10;0.90;;;;;;;30.82;30.72;102116.34;5070390;28;20028;-67
2022/07/02 08:35:51;;;;;;;3.35;1.35;;;;;;;31.59;30.32;102110.13;5070183;28;20025;-67
2022/07/02 08:38:17;;;;;;;3.75;1.98;;;;;;;31.80;29.50;102114.06;5070280;28;20044;-67
2022/07/02 08:40:43;;;;;;;1.08;1.00;;;;;;;32.18;28.73;102102.75;5070347;28;20020;-66
2022/07/02 08:43:11;;;;;;;2.17;1.55;;;;;;;32.52;29.36;102091.13;5070457;28;20034;-66
2022/07/02 08:45:37;;;;;;;5.28;1.10;;;;;;;33.16;27.63;102110.13;5070288;28;20028;-67
2022/07/02 08:48:07;;;;;;;1.17;1.08;;;;;;;33.62;27.28;102101.69;5070185;28;20388;-67
2022/07/02 08:50:33;;;;;;;1.73;0.88;;;;;;;34.01;26.18;102109.84;5069763;28;20058;-67
2022/07/02 08:52:59;;;;;;;4.13;1.30;;;;;;;34.15;27.15;102104.16;5070019;28;20036;-67
2022/07/02 08:55:26;;;;;;;1.30;1.10;;;;;;;33.89;27.59;102098.59;5069835;28;20032;-67
2022/07/02 08:57:51;;;;;;;3.90;1.80;;;;;;;33.18;26.85;102096.81;5069871;28;20050;-66
2022/07/02 09:00:20;;;;;;;2.78;1.30;;;;;;;32.93;26.90;102094.75;5070101;28;20454;-66
2022/07/02 09:02:48;;;;;;;7.30;2.20;;;;;;;32.81;25.92;102089.00;5069907;28;20035;-67
2022/07/02 09:05:15;;;;;;;2.20;1.83;;;;;;;32.79;28.30;102092.09;5069885;28;20479;-68
2022/07/02 09:07:41;;;;;;;7.72;2.35;;;;;;;32.55;29.39;102095.22;5069816;28;20040;-67
2022/07/02 09:10:09;;;;;;;3.95;1.50;;;;;;;31.28;29.51;102091.44;5069606;28;20032;-66
2022/07/02 09:12:34;;;;;;;3.83;1.20;;;;;;;29.23;31.60;102083.66;5069713;28;20974;-66
2022/07/02 09:15:00;;;;;;;1.85;1.70;;;;;;;27.63;34.54;102087.94;5069694;28;20028;-67
2022/07/02 09:17:25;;;;;;;2.10;1.40;;;;;;;26.49;36.64;102080.25;5069640;28;20120;-66
2022/07/02 09:19:51;;;;;;;3.08;2.50;;;;;;;25.49;42.10;102092.34;5069707;28;20484;-66
2022/07/02 09:22:16;;;;;;;4.53;1.40;;;;;;;24.68;41.16;102084.44;5069647;28;20105;-66
2022/07/02 09:24:43;;;;;;;4.40;1.27;;;;;;;24.13;40.48;102077.41;5069572;28;20059;-66
2022/07/02 09:27:14;;;;;;;1.80;1.27;;;;;;;23.85;42.30;102068.41;5069444;28;20940;-66
2022/07/02 09:29:41;;;;;;;2.58;1.30;;;;;;;23.77;42.26;102066.16;5069174;28;20529;-66
2022/07/02 09:32:08;;;;;;;2.83;1.30;;;;;;;23.56;46.61;102062.34;5069443;28;20088;-66
2022/07/02 09:34:33;;;;;;;2.42;1.20;;;;;;;23.41;45.10;102058.34;5069466;28;20110;-66
2022/07/02 09:36:59;;;;;;;2.50;1.38;;;;;;;23.31;47.16;102065.56;5069411;28;20491;-66
2022/07/02 09:39:31;;;;;;;3.80;1.73;;;;;;;23.29;46.38;102062.25;5069421;28;20052;-66
2022/07/02 09:41:57;;;;;;;3.00;1.48;;;;;;;23.09;45.54;102052.75;5069305;28;20031;-66
2022/07/02 09:44:25;;;;;;;4.25;1.42;;;;;;;23.07;48.16;102057.63;5069421;28;20036;-66
2022/07/02 09:46:51;;;;;;;3.60;1.30;;;;;;;22.95;46.29;102051.41;5069440;28;20032;-66
2022/07/02 09:49:17;;;;;;;1.70;1.10;;;;;;;22.98;46.51;102045.53;5069205;28;20464;-66
2022/07/02 09:51:53;;;;;;;3.80;1.48;;;;;;;23.04;47.79;102039.06;5069201;28;20035;-66
2022/07/02 09:54:23;;;;;;;3.20;1.30;;;;;;;23.05;46.25;102034.44;5069347;28;20027;-66
2022/07/02 09:56:55;;;;;;;3.70;1.73;;;;;;;22.73;46.99;102035.88;5069142;28;20059;-66
2022/07/02 09:59:21;;;;;;;3.97;1.15;;;;;;;22.43;46.55;102038.97;5069193;28;20028;-66
2022/07/02 10:01:47;;;;;;;5.30;1.27;;;;;;;22.58;49.07;102032.91;5069201;28;20376;-66
2022/07/02 10:04:13;;;;;;;3.05;1.52;;;;;;;22.78;46.57;102031.59;5069213;28;20025;-66
2022/07/02 10:06:40;;;;;;;3.13;1.40;;;;;;;22.97;48.49;102038.41;5068955;28;20039;-66
2022/07/02 10:09:07;;;;;;;3.03;1.10;;;;;;;23.01;46.55;102036.84;5068816;28;20388;-66
2022/07/02 10:11:34;;;;;;;3.03;1.27;;;;;;;22.84;45.89;102042.28;5068988;28;20039;-66
2022/07/02 10:14:00;;;;;;;4.38;1.65;;;;;;;22.53;47.48;102038.28;5071489;28;20071;-66
2022/07/02 10:16:27;;;;;;;3.35;1.02;;;;;;;22.42;48.74;102036.47;5073044;28;20024;-66
2022/07/02 10:18:53;;;;;;;2.20;1.55;;;;;;;22.66;52.01;102032.53;5073003;28;20032;-66
2022/07/02 10:21:20;;;;;;;1.45;1.20;;;;;;;22.73;47.75;102027.72;5073072;28;20553;-66
2022/07/02 10:23:46;;;;;;;5.82;1.40;;;;;;;22.56;48.57;102026.09;5072868;28;20036;-66
2022/07/02 10:26:13;;;;;;;3.97;1.10;;;;;;;22.69;49.75;102020.31;5073301;28;20119;-66
2022/07/02 10:28:38;;;;;;;2.80;1.25;;;;;;;22.91;47.05;102020.34;5072670;28;20083;-66
2022/07/02 10:31:08;;;;;;;2.28;0.90;;;;;;;23.15;44.75;102013.63;5072888;28;20075;-66
2022/07/02 10:33:43;;;;;;;2.45;1.10;;;;;;;23.19;46.49;102019.41;5072732;28;20043;-66
2022/07/02 10:36:11;;;;;;;5.15;1.20;;;;;;;23.20;47.35;102018.31;5072797;28;20147;-66
2022/07/02 10:38:38;;;;;;;2.70;1.27;;;;;;;23.30;46.95;102015.72;5071349;28;20029;-66
2022/07/02 10:41:05;;;;;;;4.07;1.23;;;;;;;23.31;44.25;102009.19;5072731;28;20549;-66
2022/07/02 10:43:36;;;;;;;7.00;1.05;;;;;;;23.46;48.54;102010.47;5072640;28;20048;-66
2022/07/02 10:46:04;;;;;;;1.92;0.93;;;;;;;23.72;45.46;102006.16;5071120;28;20446;-66
2022/07/02 10:48:31;;;;;;;1.80;1.17;;;;;;;23.84;43.56;102004.06;5072306;28;20033;-66
2022/07/02 10:50:58;;;;;;;5.40;1.38;;;;;;;23.61;43.80;102007.91;5072268;28;20086;-65
2022/07/02 10:53:27;;;;;;;2.60;1.08;;;;;;;23.33;44.07;102000.78;5072442;28;20052;-66
2022/07/02 10:55:58;;;;;;;4.45;1.20;;;;;;;23.54;47.06;102005.38;5072296;28;20036;-66
2022/07/02 10:58:29;;;;;;;4.63;1.00;;;;;;;23.44;43.90;102005.25;5072299;28;20032;-66
2022/07/02 11:00:55;;;;;;;1.92;0.98;;;;;;;23.11;46.03;102009.78;5071930;28;20028;-65
2022/07/02 11:03:24;;;;;;;3.10;1.23;;;;;;;23.09;45.97;101998.31;5071875;28;20024;-66
2022/07/02 11:06:14;;;;;;;1.30;0.82;;;;;;;23.51;45.79;101997.72;5071661;28;20502;-66
2022/07/02 11:08:46;;;;;;;1.08;0.80;;;;;;;23.81;45.66;101996.44;5071749;28;20025;-65
2022/07/02 11:11:30;;;;;;;2.60;0.80;;;;;;;24.01;46.76;102001.25;5071694;28;20074;-65
2022/07/02 11:14:01;;;;;;;2.70;0.82;;;;;;;23.94;45.45;102000.63;5071759;28;20023;-66
2022/07/02 11:16:41;;;;;;;3.43;1.53;;;;;;;23.84;45.29;101995.91;5071646;28;20090;-65
2022/07/02 11:19:19;;;;;;;1.95;0.93;;;;;;;23.84;43.74;101990.44;5071584;28;20479;-65
2022/07/02 11:21:46;;;;;;;2.28;0.90;;;;;;;23.81;45.52;101986.34;5071543;28;20028;-65
2022/07/02 11:24:15;;;;;;;2.38;0.90;;;;;;;23.57;42.35;101996.69;5070856;28;20082;-66
2022/07/02 11:26:42;;;;;;;4.10;0.85;;;;;;;23.46;42.01;101984.06;5071201;28;20032;-65